Time,TemperatureF,DewpointF,PressureIn,WindDirection,WindDirectionDegrees,WindSpeedMPH,WindSpeedGustMPH,Humidity,HourlyPrecipIn,Conditions,Clouds,dailyrainin,SoftwareType,DateUTC
2013-02-10 00:15:00,9.9,4.4,27.52,North,-999,0.0,-999.0,78,-99.99,,,-99.99,Acu-Link.com,2013-02-10 07:15:00,
2013-02-10 00:30:00,9.6,3.9,27.53,North,-999,0.0,-999.0,77,-99.99,,,-99.99,Acu-Link.com,2013-02-10 07:30:00,
2013-02-10 00:45:00,9.4,4.0,27.54,North,-999,0.0,-999.0,78,-99.99,,,-99.99,Acu-Link.com,2013-02-10 07:45:00,
2013-02-10 01:01:00,9.1,3.4,27.54,North,-999,0.0,-999.0,77,-99.99,,,-99.99,Acu-Link.com,2013-02-10 08:01:00,
2013-02-10 01:16:00,9.2,3.8,27.54,North,-999,0.0,-999.0,78,-99.99,,,-99.99,Acu-Link.com,2013-02-10 08:16:00,
2013-02-10 01:31:00,8.9,3.2,27.55,North,-999,0.0,-999.0,77,-99.99,,,-99.99,Acu-Link.com,2013-02-10 08:31:00,
2013-02-10 01:46:00,8.9,3.2,27.57,North,-999,0.0,-999.0,77,-99.99,,,-99.99,Acu-Link.com,2013-02-10 08:46:00,
2013-02-10 02:19:00,8.7,2.7,27.57,North,-999,0.0,-999.0,76,-99.99,,,-99.99,Acu-Link.com,2013-02-10 09:19:00,
2013-02-10 02:34:00,8.3,2.6,27.58,North,-999,0.0,-999.0,77,-99.99,,,-99.99,Acu-Link.com,2013-02-10 09:34:00,
2013-02-10 02:49:00,7.9,2.2,27.59,North,-999,0.0,-999.0,77,-99.99,,,-99.99,Acu-Link.com,2013-02-10 09:49:00,
2013-02-10 03:04:00,8.0,2.3,27.60,North,-999,0.0,-999.0,77,-99.99,,,-99.99,Acu-Link.com,2013-02-10 10:04:00,
2013-02-10 03:19:00,7.8,2.1,27.60,North,-999,0.0,-999.0,77,-99.99,,,-99.99,Acu-Link.com,2013-02-10 10:19:00,
2013-02-10 03:35:00,7.7,2.3,27.61,North,-999,0.0,-999.0,78,-99.99,,,-99.99,Acu-Link.com,2013-02-10 10:35:00,
2013-02-10 03:50:00,7.3,1.6,27.61,North,-999,0.0,-999.0,77,-99.99,,,-99.99,Acu-Link.com,2013-02-10 10:50:00,
2013-02-10 04:05:00,7.0,1.6,27.62,North,-999,0.0,-999.0,78,-99.99,,,-99.99,Acu-Link.com,2013-02-10 11:05:00,
2013-02-10 04:20:00,6.8,1.4,27.63,North,-999,0.0,-999.0,78,-99.99,,,-99.99,Acu-Link.com,2013-02-10 11:20:00,
2013-02-10 04:35:00,6.8,1.4,27.64,North,-999,0.0,-999.0,78,-99.99,,,-99.99,Acu-Link.com,2013-02-10 11:35:00,
2013-02-10 04:51:00,6.9,1.5,27.65,North,-999,0.0,-999.0,78,-99.99,,,-99.99,Acu-Link.com,2013-02-10 11:51:00,
2013-02-10 05:06:00,7.0,1.6,27.66,North,-999,0.0,-999.0,78,-99.99,,,-99.99,Acu-Link.com,2013-02-10 12:06:00,
2013-02-10 05:22:00,7.0,1.6,27.66,North,-999,0.0,-999.0,78,-99.99,,,-99.99,Acu-Link.com,2013-02-10 12:22:00,
2013-02-10 05:37:00,7.2,1.8,27.68,North,-999,0.0,-999.0,78,-99.99,,,-99.99,Acu-Link.com,2013-02-10 12:37:00,
2013-02-10 05:52:00,7.2,1.8,27.69,North,-999,0.0,-999.0,78,-99.99,,,-99.99,Acu-Link.com,2013-02-10 12:52:00,
2013-02-10 06:07:00,7.2,1.8,27.70,North,-999,0.0,-999.0,78,-99.99,,,-99.99,Acu-Link.com,2013-02-10 13:07:00,
2013-02-10 06:23:00,7.2,1.5,27.71,North,-999,0.0,-999.0,77,-99.99,,,-99.99,Acu-Link.com,2013-02-10 13:23:00,
2013-02-10 06:38:00,7.1,1.4,27.72,North,-999,0.0,-999.0,77,-99.99,,,-99.99,Acu-Link.com,2013-02-10 13:38:00,
2013-02-10 06:53:00,6.9,1.2,27.73,North,-999,0.0,-999.0,77,-99.99,,,-99.99,Acu-Link.com,2013-02-10 13:53:00,
2013-02-10 07:08:00,6.7,1.0,27.74,North,-999,0.0,-999.0,77,-99.99,,,-99.99,Acu-Link.com,2013-02-10 14:08:00,
2013-02-10 07:23:00,6.8,1.1,27.76,North,-999,0.0,-999.0,77,-99.99,,,-99.99,Acu-Link.com,2013-02-10 14:23:00,
2013-02-10 07:39:00,7.2,1.3,27.76,North,-999,0.0,-999.0,76,-99.99,,,-99.99,Acu-Link.com,2013-02-10 14:39:00,
2013-02-10 07:54:00,7.3,1.1,27.77,North,-999,0.0,-999.0,75,-99.99,,,-99.99,Acu-Link.com,2013-02-10 14:54:00,
2013-02-10 08:09:00,7.7,1.5,27.78,North,-999,0.0,-999.0,75,-99.99,,,-99.99,Acu-Link.com,2013-02-10 15:09:00,
2013-02-10 08:25:00,9.0,2.4,27.80,North,-999,0.0,-999.0,74,-99.99,,,-99.99,Acu-Link.com,2013-02-10 15:25:00,
2013-02-10 08:40:00,10.2,3.3,27.81,North,-999,0.0,-999.0,73,-99.99,,,-99.99,Acu-Link.com,2013-02-10 15:40:00,
2013-02-10 08:55:00,10.6,3.1,27.81,North,-999,0.0,-999.0,71,-99.99,,,-99.99,Acu-Link.com,2013-02-10 15:55:00,
2013-02-10 09:10:00,10.6,2.5,27.82,North,-999,0.0,-999.0,69,-99.99,,,-99.99,Acu-Link.com,2013-02-10 16:10:00,
2013-02-10 09:25:00,12.8,3.6,27.83,North,-999,0.0,-999.0,66,-99.99,,,-99.99,Acu-Link.com,2013-02-10 16:25:00,
2013-02-10 09:41:00,14.1,4.2,27.84,North,-999,0.0,-999.0,64,-99.99,,,-99.99,Acu-Link.com,2013-02-10 16:41:00,
2013-02-10 09:56:00,15.4,4.4,27.84,North,-999,0.0,-999.0,61,-99.99,,,-99.99,Acu-Link.com,2013-02-10 16:56:00,
2013-02-10 10:11:00,15.8,3.7,27.85,North,-999,0.0,-999.0,58,-99.99,,,-99.99,Acu-Link.com,2013-02-10 17:11:00,
2013-02-10 10:27:00,16.1,4.0,27.86,North,-999,0.0,-999.0,58,-99.99,,,-99.99,Acu-Link.com,2013-02-10 17:27:00,
2013-02-10 10:42:00,17.3,4.7,27.85,North,-999,0.0,-999.0,57,-99.99,,,-99.99,Acu-Link.com,2013-02-10 17:42:00,
2013-02-10 10:57:00,21.1,9.0,27.86,North,-999,0.0,-999.0,59,-99.99,,,-99.99,Acu-Link.com,2013-02-10 17:57:00,
2013-02-10 11:12:00,22.4,9.9,27.90,North,-999,0.0,-999.0,58,-99.99,,,-99.99,Acu-Link.com,2013-02-10 18:12:00,
2013-02-10 11:27:00,21.2,9.5,27.89,North,-999,0.0,-999.0,60,-99.99,,,-99.99,Acu-Link.com,2013-02-10 18:27:00,
2013-02-10 11:43:00,21.0,9.3,27.90,North,-999,1.6,-999.0,60,-99.99,,,-99.99,Acu-Link.com,2013-02-10 18:43:00,
2013-02-10 11:58:00,18.9,7.3,27.90,North,-999,0.0,-999.0,60,-99.99,,,-99.99,Acu-Link.com,2013-02-10 18:58:00,
2013-02-10 12:13:00,19.0,8.5,27.88,North,-999,0.0,-999.0,63,-99.99,,,-99.99,Acu-Link.com,2013-02-10 19:13:00,
2013-02-10 12:28:00,20.9,11.0,27.92,North,-999,1.6,-999.0,65,-99.99,,,-99.99,Acu-Link.com,2013-02-10 19:28:00,
2013-02-10 12:43:00,21.3,10.7,27.89,North,-999,1.6,-999.0,63,-99.99,,,-99.99,Acu-Link.com,2013-02-10 19:43:00,
2013-02-10 12:59:00,20.2,9.3,27.92,North,-999,0.0,-999.0,62,-99.99,,,-99.99,Acu-Link.com,2013-02-10 19:59:00,
2013-02-10 13:14:00,19.9,9.4,27.91,North,-999,1.6,-999.0,63,-99.99,,,-99.99,Acu-Link.com,2013-02-10 20:14:00,
2013-02-10 13:31:00,20.0,9.5,27.89,North,-999,0.0,-999.0,63,-99.99,,,-99.99,Acu-Link.com,2013-02-10 20:31:00,
2013-02-10 13:47:00,22.9,12.2,27.91,North,-999,4.8,-999.0,63,-99.99,,,-99.99,Acu-Link.com,2013-02-10 20:47:00,
2013-02-10 14:03:00,24.8,12.5,27.92,North,-999,0.0,-999.0,59,-99.99,,,-99.99,Acu-Link.com,2013-02-10 21:03:00,
2013-02-10 14:18:00,24.3,11.3,27.94,North,-999,1.6,-999.0,57,-99.99,,,-99.99,Acu-Link.com,2013-02-10 21:18:00,
2013-02-10 14:33:00,20.7,8.3,27.94,North,-999,0.0,-999.0,58,-99.99,,,-99.99,Acu-Link.com,2013-02-10 21:33:00,
2013-02-10 14:49:00,22.1,10.4,27.96,North,-999,0.0,-999.0,60,-99.99,,,-99.99,Acu-Link.com,2013-02-10 21:49:00,
2013-02-10 15:04:00,18.3,6.0,27.97,North,-999,0.0,-999.0,58,-99.99,,,-99.99,Acu-Link.com,2013-02-10 22:04:00,
2013-02-10 15:19:00,16.2,4.4,27.97,North,-999,0.0,-999.0,59,-99.99,,,-99.99,Acu-Link.com,2013-02-10 22:19:00,
2013-02-10 15:34:00,15.6,4.6,27.99,North,-999,0.0,-999.0,61,-99.99,,,-99.99,Acu-Link.com,2013-02-10 22:34:00,
2013-02-10 15:49:00,14.5,3.9,28.00,North,-999,0.0,-999.0,62,-99.99,,,-99.99,Acu-Link.com,2013-02-10 22:49:00,
2013-02-10 16:05:00,13.4,3.2,28.01,North,-999,0.0,-999.0,63,-99.99,,,-99.99,Acu-Link.com,2013-02-10 23:05:00,
2013-02-10 16:20:00,12.7,2.5,28.01,North,-999,0.0,-999.0,63,-99.99,,,-99.99,Acu-Link.com,2013-02-10 23:20:00,
2013-02-10 16:35:00,11.4,1.6,28.02,North,-999,0.0,-999.0,64,-99.99,,,-99.99,Acu-Link.com,2013-02-10 23:35:00,
2013-02-10 16:51:00,10.5,1.4,28.03,North,-999,0.0,-999.0,66,-99.99,,,-99.99,Acu-Link.com,2013-02-10 23:51:00,
2013-02-10 17:06:00,9.3,0.9,28.04,North,-999,0.0,-999.0,68,-99.99,,,-99.99,Acu-Link.com,2013-02-11 00:06:00,
2013-02-10 17:21:00,8.1,0.1,28.05,North,-999,0.0,-999.0,69,-99.99,,,-99.99,Acu-Link.com,2013-02-11 00:21:00,
2013-02-10 17:36:00,6.9,-0.8,28.05,North,-999,0.0,-999.0,70,-99.99,,,-99.99,Acu-Link.com,2013-02-11 00:36:00,
2013-02-10 17:51:00,5.6,-1.4,28.06,North,-999,0.0,-999.0,72,-99.99,,,-99.99,Acu-Link.com,2013-02-11 00:51:00,
2013-02-10 18:07:00,4.6,-2.1,28.06,North,-999,0.0,-999.0,73,-99.99,,,-99.99,Acu-Link.com,2013-02-11 01:07:00,
2013-02-10 18:22:00,3.8,-2.6,28.07,North,-999,0.0,-999.0,74,-99.99,,,-99.99,Acu-Link.com,2013-02-11 01:22:00,
2013-02-10 18:37:00,2.5,-3.6,28.08,North,-999,0.0,-999.0,75,-99.99,,,-99.99,Acu-Link.com,2013-02-11 01:37:00,
2013-02-10 18:52:00,1.9,-3.9,28.09,North,-999,0.0,-999.0,76,-99.99,,,-99.99,Acu-Link.com,2013-02-11 01:52:00,
2013-02-10 19:07:00,1.0,-4.8,28.09,North,-999,0.0,-999.0,76,-99.99,,,-99.99,Acu-Link.com,2013-02-11 02:07:00,
2013-02-10 19:23:00,-0.2,-5.9,28.09,North,-999,0.0,-999.0,76,-99.99,,,-99.99,Acu-Link.com,2013-02-11 02:23:00,
2013-02-10 19:38:00,-0.9,-6.6,28.10,North,-999,0.0,-999.0,76,-99.99,,,-99.99,Acu-Link.com,2013-02-11 02:38:00,
2013-02-10 19:53:00,-2.3,-8.2,28.11,North,-999,0.0,-999.0,75,-99.99,,,-99.99,Acu-Link.com,2013-02-11 02:53:00,
2013-02-10 20:09:00,-2.7,-8.4,28.11,North,-999,0.0,-999.0,76,-99.99,,,-99.99,Acu-Link.com,2013-02-11 03:09:00,
2013-02-10 20:24:00,-2.9,-8.6,28.13,North,-999,0.0,-999.0,76,-99.99,,,-99.99,Acu-Link.com,2013-02-11 03:24:00,
2013-02-10 20:39:00,-3.8,-9.7,28.13,North,-999,0.0,-999.0,75,-99.99,,,-99.99,Acu-Link.com,2013-02-11 03:39:00,
2013-02-10 20:54:00,-3.8,-9.4,28.14,North,-999,0.0,-999.0,76,-99.99,,,-99.99,Acu-Link.com,2013-02-11 03:54:00,
2013-02-10 21:09:00,-4.2,-9.8,28.15,North,-999,0.0,-999.0,76,-99.99,,,-99.99,Acu-Link.com,2013-02-11 04:09:00,
2013-02-10 21:25:00,-3.1,-8.5,28.15,North,-999,0.0,-999.0,77,-99.99,,,-99.99,Acu-Link.com,2013-02-11 04:25:00,
2013-02-10 21:40:00,-4.9,-10.8,28.16,North,-999,0.0,-999.0,75,-99.99,,,-99.99,Acu-Link.com,2013-02-11 04:40:00,
2013-02-10 21:55:00,-4.4,-10.0,28.16,North,-999,0.0,-999.0,76,-99.99,,,-99.99,Acu-Link.com,2013-02-11 04:55:00,
2013-02-10 22:10:00,-3.0,-8.4,28.17,North,-999,0.0,-999.0,77,-99.99,,,-99.99,Acu-Link.com,2013-02-11 05:10:00,
2013-02-10 22:26:00,-2.3,-7.4,28.18,North,-999,0.0,-999.0,78,-99.99,,,-99.99,Acu-Link.com,2013-02-11 05:26:00,
2013-02-10 22:41:00,-1.8,-6.7,28.18,North,-999,0.0,-999.0,79,-99.99,,,-99.99,Acu-Link.com,2013-02-11 05:41:00,
2013-02-10 22:56:00,-1.7,-6.9,28.18,North,-999,0.0,-999.0,78,-99.99,,,-99.99,Acu-Link.com,2013-02-11 05:56:00,
2013-02-10 23:11:00,-2.3,-7.7,28.19,North,-999,0.0,-999.0,77,-99.99,,,-99.99,Acu-Link.com,2013-02-11 06:11:00,
2013-02-10 23:27:00,-2.7,-8.1,28.19,North,-999,0.0,-999.0,77,-99.99,,,-99.99,Acu-Link.com,2013-02-11 06:27:00,
2013-02-10 23:42:00,-3.8,-9.4,28.20,North,-999,0.0,-999.0,76,-99.99,,,-99.99,Acu-Link.com,2013-02-11 06:42:00,
2013-02-10 23:57:00,-4.7,-10.3,28.20,North,-999,0.0,-999.0,76,-99.99,,,-99.99,Acu-Link.com,2013-02-11 06:57:00,